• Join FlightAware (Why Join?)
  • Login
  • US Flag 
03:19AM EDT


 

Airport Tracker/Info


-or-


 

Live Flight TrackerFlight Track Log ✈ SWA720 ✈ 20-Apr-2013 ✈ KHOU - KPHX

Flight Track Log - Related Links

Times and Time Zones

All times are in EDT time to prevent confusion due to time zone crossing. See the SWA720 flight status page for this flight to view local times or setup timezone preferences in your user account.

Time Position Orientation Groundspeed Altitude Reporting Facility
EDT Latitude Longitude Course Direction KTS MPH feet Rate Location/Type
07:07PM 29.6583 -95.2647 321° Northwest 164 189 800  Level Houston Center
07:09PM 29.7067 -95.3094 321° Northwest 269 310 3,700 2,280 Climbing Houston Center
07:10PM 29.7342 -95.3767 295° West 255 293 6,100 2,880 Climbing Houston Center
07:11PM 29.7586 -95.4608 289° West 275 316 9,700 2,460 Climbing Houston Center
07:12PM 29.7856 -95.5739 285° West 313 360 11,200 2,100 Climbing Houston Center
07:13PM 29.8131 -95.6856 286° West 359 413 14,100 2,700 Climbing Houston Center
07:14PM 29.8389 -95.7964 285° West 360 414 16,800 2,280 Climbing Houston Center
07:15PM 29.8650 -95.9086 285° West 364 419 18,800 2,040 Climbing Houston Center
07:16PM 29.8953 -96.0367 285° West 370 426 21,100 1,980 Climbing Houston Center
07:17PM 29.9233 -96.1511 286° West 373 429 22,900 1,680 Climbing Houston Center
07:18PM 29.9411 -96.2706 280° West 376 433 24,600 1,560 Climbing Houston Center
07:19PM 29.9467 -96.3936 273° West 384 442 26,200 1,800 Climbing Houston Center
07:20PM 29.9528 -96.5122 273° West 376 433 28,400 1,920 Climbing Houston Center
07:21PM 29.9686 -96.6236 279° West 357 411 30,200 1,620 Climbing Houston Center
07:22PM 29.9953 -96.7544 283° West 350 403 31,800 1,380 Climbing Houston Center
07:23PM 30.0189 -96.8622 284° West 349 402 33,100 1,020 Climbing Houston Center
07:24PM 30.0394 -96.9678 283° West 340 391 34,000 420 Climbing Houston Center
07:25PM 30.0633 -97.0742 285° West 343 395 34,000  Level Houston Center
07:26PM 30.0836 -97.1817 282° West 345 397 34,000  Level Houston Center
07:27PM 30.1078 -97.2933 284° West 345 397 34,000  Level Houston Center
07:28PM 30.1306 -97.4033 283° West 346 398 34,000  Level Houston Center
07:29PM 30.1522 -97.5128 283° West 347 399 34,000  Level Houston Center
07:30PM 30.1747 -97.6219 283° West 344 396 34,000  Level Houston Center
07:31PM 30.1964 -97.7328 283° West 347 399 34,000  Level Houston Center
07:32PM 30.2225 -97.8597 283° West 345 397 34,000  Level Houston Center
07:33PM 30.2442 -97.9719 283° West 343 395 34,000  Level Houston Center
07:34PM 30.2656 -98.0792 283° West 342 394 34,000  Level Houston Center
07:35PM 30.2867 -98.1872 283° West 345 397 34,000  Level Houston Center
07:36PM 30.3097 -98.3019 283° West 343 395 34,000  Level Houston Center
07:37PM 30.3286 -98.4042 282° West 343 395 34,000  Level Houston Center
07:38PM 30.3531 -98.5128 285° West 342 394 34,000  Level Houston Center
07:39PM 30.3775 -98.6200 285° West 343 395 34,000  Level Houston Center
07:40PM 30.4011 -98.7289 284° West 345 397 34,000  Level Houston Center
07:41PM 30.4258 -98.8378 285° West 346 398 34,000  Level Houston Center
07:42PM 30.4492 -98.9461 284° West 344 396 34,000  Level Houston Center
07:43PM 30.4719 -99.0544 284° West 342 394 34,000  Level Houston Center
07:44PM 30.4983 -99.1761 284° West 343 395 34,000  Level Houston Center
07:45PM 30.5225 -99.2825 285° West 342 394 34,000  Level Houston Center
07:46PM 30.5458 -99.3906 284° West 345 397 34,000  Level Houston Center
07:48PM 30.5683 -99.4986 284° West 347 399 34,000  Level Houston Center
07:49PM 30.5914 -99.6050 284° West 343 395 34,000  Level Houston Center
07:50PM 30.6139 -99.7133 284° West 346 398 34,000  Level Houston Center
07:51PM 30.6356 -99.8200 283° West 341 392 34,000  Level Houston Center
07:52PM 30.6631 -99.9486 284° West 344 396 34,000  Level Houston Center
07:53PM 30.6847 -100.0561 283° West 344 396 34,000  Level Houston Center
07:54PM 30.7083 -100.1628 284° West 344 396 34,000  Level Houston Center
07:55PM 30.7292 -100.2686 283° West 341 392 34,000 -60 Level Houston Center
07:56PM 30.7506 -100.3742 283° West 338 389 33,900  Descending Houston Center
07:57PM 30.7719 -100.4781 284° West 333 383 34,000  Climbing Houston Center
07:58PM 30.7939 -100.5844 284° West 340 391 34,000  Level Houston Center
07:59PM 30.8194 -100.7114 283° West 337 388 34,000  Level Houston Center
08:00PM 30.8411 -100.8164 284° West 337 388 34,000  Level Houston Center
08:01PM 30.8625 -100.9208 283° West 334 384 34,000 -60 Level Houston Center
08:02PM 30.8836 -101.0269 283° West 337 388 33,900 -60 Descending Houston Center
08:03PM 30.9028 -101.1328 282° West 337 388 33,900  Level Houston Center
08:04PM 30.9261 -101.2350 285° West 330 380 34,000  Climbing Houston Center
08:05PM 30.9508 -101.3583 283° West 339 390 34,000  Level Houston Center
08:06PM 30.9728 -101.4672 283° West 344 396 34,000  Level Houston Center
08:07PM 30.9869 -101.5531 281° West 341 392 34,000  Level Albuquerque Center
08:08PM 31.0083 -101.6619 283° West 344 396 34,000  Level Albuquerque Center
08:09PM 31.0300 -101.7714 283° West 345 397 34,000 -60 Level Albuquerque Center
08:10PM 31.0506 -101.8808 282° West 345 397 33,900  Descending Albuquerque Center
08:11PM 31.0717 -101.9911 283° West 345 397 34,000  Climbing Albuquerque Center
08:12PM 31.0914 -102.1008 282° West 345 397 34,000  Level Albuquerque Center
08:13PM 31.1111 -102.2053 282° West 337 388 34,000  Level Albuquerque Center
08:14PM 31.1361 -102.3306 283° West 332 382 34,000 -60 Level Albuquerque Center
08:15PM 31.1553 -102.4372 282° West 334 384 33,900  Descending Albuquerque Center
08:16PM 31.1753 -102.5422 283° West 322 371 34,000  Climbing Albuquerque Center
08:17PM 31.1936 -102.6408 282° West 313 360 34,000  Level Albuquerque Center
08:18PM 31.2122 -102.7422 282° West 316 364 34,000  Level Albuquerque Center
08:19PM 31.2308 -102.8433 282° West 319 367 34,000  Level Albuquerque Center
08:20PM 31.2497 -102.9444 282° West 319 367 34,000  Level Albuquerque Center
08:21PM 31.2681 -103.0447 282° West 317 365 34,000 -60 Level Albuquerque Center
08:22PM 31.2858 -103.1467 282° West 319 367 33,900  Descending Albuquerque Center
08:23PM 31.3050 -103.2486 282° West 321 369 34,000  Climbing Albuquerque Center
08:24PM 31.3264 -103.3708 282° West 320 368 34,000  Level Albuquerque Center
08:25PM 31.3453 -103.4742 282° West 324 373 34,000  Level Albuquerque Center
08:26PM 31.3628 -103.5769 281° West 324 373 34,000  Level Albuquerque Center
08:27PM 31.3806 -103.6806 281° West 325 374 34,000  Level Albuquerque Center
08:28PM 31.3981 -103.7750 282° West 326 375 34,000  Level Albuquerque Center
08:29PM 31.4156 -103.8794 281° West 328 377 34,000 -60 Level Albuquerque Center
08:30PM 31.4389 -104.0047 282° West 330 380 33,900  Descending Albuquerque Center
08:31PM 31.4569 -104.1114 281° West 334 384 34,000  Climbing Albuquerque Center
08:32PM 31.4750 -104.2169 281° West 334 384 34,000  Level Albuquerque Center
08:33PM 31.4950 -104.3247 282° West 339 390 34,000  Level Albuquerque Center
08:34PM 31.5133 -104.4325 281° West 339 390 34,000  Level Albuquerque Center
08:35PM 31.5317 -104.5403 281° West 339 390 34,000  Level Albuquerque Center
08:36PM 31.5500 -104.6475 281° West 339 390 34,000  Level Albuquerque Center
08:37PM 31.5689 -104.7572 281° West 343 395 34,000 -60 Level Albuquerque Center
08:38PM 31.5911 -104.8867 281° West 341 392 33,900 -60 Descending Albuquerque Center
08:40PM 31.6092 -104.9964 281° West 344 396 33,900  Level Albuquerque Center
08:41PM 31.6272 -105.1033 281° West 339 390 34,000  Climbing Albuquerque Center
08:42PM 31.6444 -105.2117 281° West 340 391 34,000  Level Albuquerque Center
08:43PM 31.6636 -105.3192 282° West 339 390 34,000  Level Albuquerque Center
08:44PM 31.6800 -105.4328 280° West 349 402 34,000  Level Albuquerque Center
08:45PM 31.6975 -105.5419 281° West 343 395 34,000  Level Albuquerque Center
08:46PM 31.7156 -105.6503 281° West 339 390 34,000  Level Albuquerque Center
08:47PM 31.7364 -105.7819 281° West 343 395 34,000  Level Albuquerque Center
08:48PM 31.7533 -105.8911 280° West 342 394 34,000  Level Albuquerque Center
08:49PM 31.7714 -106.0006 281° West 343 395 34,000  Level Albuquerque Center
08:50PM 31.7900 -106.1106 281° West 344 396 34,000  Level Albuquerque Center
08:51PM 31.8094 -106.2236 281° West 352 405 34,000  Level Albuquerque Center
08:52PM 31.8289 -106.3369 281° West 354 407 34,000  Level Albuquerque Center
08:53PM 31.8461 -106.4547 280° West 359 413 34,000 -60 Level Albuquerque Center
08:54PM 31.8664 -106.5711 282° West 361 415 33,900 -60 Descending Albuquerque Center
08:55PM 31.8847 -106.6847 281° West 355 409 33,900  Level Albuquerque Center
08:56PM 31.9039 -106.7989 281° West 355 409 34,000  Climbing Albuquerque Center
08:57PM 31.9261 -106.9378 281° West 360 414 33,900  Descending Albuquerque Center
08:58PM 31.9439 -107.0525 280° West 357 411 34,000  Climbing Albuquerque Center
08:59PM 31.9611 -107.1706 280° West 362 417 33,900  Descending Albuquerque Center
09:00PM 31.9797 -107.2861 281° West 360 414 34,000  Climbing Albuquerque Center
09:01PM 31.9975 -107.4028 280° West 360 414 34,000  Level Albuquerque Center
09:02PM 32.0153 -107.5192 280° West 360 414 34,000  Level Albuquerque Center
09:03PM 32.0331 -107.6372 280° West 363 418 34,000  Level Albuquerque Center
09:04PM 32.0506 -107.7561 280° West 365 420 34,000  Level Albuquerque Center
09:05PM 32.0678 -107.8753 280° West 367 422 34,000  Level Albuquerque Center
09:06PM 32.0861 -107.9944 280° West 368 423 34,000 -60 Level Albuquerque Center
09:07PM 32.1036 -108.1117 280° West 365 420 33,900  Descending Albuquerque Center
09:08PM 32.1211 -108.2308 280° West 366 421 34,000  Climbing Albuquerque Center
09:09PM 32.1372 -108.3461 279° West 364 419 34,000  Level Albuquerque Center
09:10PM 32.1575 -108.4797 280° West 355 409 34,000  Level Albuquerque Center
09:11PM 32.1733 -108.5922 279° West 351 404 34,000  Level Albuquerque Center
09:12PM 32.1903 -108.7081 280° West 357 411 34,000  Level Albuquerque Center
09:13PM 32.2067 -108.8217 280° West 356 410 34,000  Level Albuquerque Center
09:14PM 32.2231 -108.9367 280° West 357 411 34,000  Level Albuquerque Center
09:15PM 32.2389 -109.0492 279° West 354 407 34,000  Level Albuquerque Center
09:16PM 32.2539 -109.1644 279° West 356 410 34,000  Level Albuquerque Center
09:17PM 32.2714 -109.2800 280° West 358 412 34,000  Level Albuquerque Center
09:18PM 32.2994 -109.3931 286° West 362 417 34,000  Level Albuquerque Center
09:19PM 32.3319 -109.5244 286° West 354 407 34,000  Level Albuquerque Center
09:20PM 32.3586 -109.6347 286° West 352 405 34,000  Level Albuquerque Center
09:21PM 32.3850 -109.7456 286° West 352 405 34,000  Level Albuquerque Center
09:22PM 32.4114 -109.8553 286° West 351 404 34,000  Level Albuquerque Center
09:23PM 32.4414 -109.9689 287° West 359 413 34,000  Level Albuquerque Center
09:24PM 32.4661 -110.0806 285° West 355 409 34,000 -1,020 Level Albuquerque Center
09:25PM 32.4936 -110.1931 286° West 357 411 32,000 -2,280 Descending Albuquerque Center
09:26PM 32.5211 -110.3075 286° West 361 415 29,400 -2,520 Descending Albuquerque Center
09:27PM 32.5500 -110.4358 285° West 373 429 26,900 -2,400 Descending Albuquerque Center
09:28PM 32.5778 -110.5528 286° West 371 427 24,600 -1,440 Descending Albuquerque Center
09:29PM 32.6206 -110.6536 297° West 350 403 24,000 -300 Descending Albuquerque Center
09:30PM 32.6742 -110.7478 304° West 345 397 24,000  Level Albuquerque Center
09:31PM 32.7250 -110.8453 302° West 346 398 24,000 -360 Level Albuquerque Center
09:32PM 32.7781 -110.9411 303° West 347 399 23,300 -1,620 Descending Albuquerque Center
09:34PM 32.8372 -111.0553 302° West 341 392 20,800 -2,040 Descending Albuquerque Center
09:35PM 32.8825 -111.1456 301° West 325 374 19,200 -1,800 Descending Albuquerque Center
09:36PM 32.9250 -111.2342 300° West 311 358 17,200 -1,920 Descending Albuquerque Center
09:37PM 32.9672 -111.3261 299° West 314 361 15,300 -1,620 Descending Albuquerque Center
09:38PM 33.0083 -111.4150 299° West 309 356 14,000 -1,440 Descending Albuquerque Center
09:39PM 33.0506 -111.4983 301° West 296 341 12,400 -1,620 Descending Albuquerque Center
09:40PM 33.0975 -111.5719 307° West 283 326 10,800 -1,380 Descending Albuquerque Center
09:41PM 33.1625 -111.6069 336° Northwest 254 292 9,600 -900 Descending Albuquerque Center
09:42PM 33.2206 -111.6394 335° Northwest 234 269 9,000 -840 Descending Albuquerque Center
09:43PM 33.2786 -111.6731 334° Northwest 233 268 7,900 -1,140 Descending Albuquerque Center
09:44PM 33.3369 -111.7081 333° Northwest 234 269 6,800 -960 Descending Albuquerque Center
09:45PM 33.3886 -111.7431 331° Northwest 212 244 6,000 -1,080 Descending Albuquerque Center
09:46PM 33.4192 -111.7994 303° West 202 232 4,700 -1,380 Descending Albuquerque Center
09:47PM 33.4289 -111.8603 281° West 190 219 3,300 -1,080 Descending Albuquerque Center
09:48PM 33.4289 -111.9114 270° West 159 183 2,600 -840 Descending Albuquerque Center
09:49PM 33.4292 -111.9675 270° West 143 165 1,700 -720 Descending Albuquerque Center
09:50PM 33.4281 -112.0161 268° West 143 165 1,200 -540 Descending Albuquerque Center